Time;durP1;ratioP1;P1;durP2;ratioP2;P2;SDS_P1;SDS_P2;PMS_P1;PMS_P2;Temp;Humidity;BMP_temperature;BMP_pressure;BME280_temperature;BME280_humidity;BME280_pressure;Samples;Min_cycle;Max_cycle;Signal;HPM_P1;HPM_P2
2021/03/15 00:05:02;;;;;;;11.93;3.28;;;7.00;99.90;;;;;;5732993;23;20019;-82
2021/03/15 00:07:28;;;;;;;24.70;5.63;;;7.60;99.90;;;;;;5019051;28;20089;-82
2021/03/15 00:12:30;;;;;;;26.80;5.43;;;7.70;99.90;;;;;;5430746;22;20050;-84
2021/03/15 00:22:44;;;;;;;27.70;4.70;;;7.70;99.90;;;;;;5923453;22;20065;-82
2021/03/15 00:25:11;;;;;;;18.67;4.53;;;7.70;99.90;;;;;;5019895;28;20030;-81
2021/03/15 00:30:14;;;;;;;28.17;6.50;;;7.70;99.90;;;;;;5531877;22;20072;-83
2021/03/15 00:32:41;;;;;;;22.33;4.55;;;7.70;99.90;;;;;;5016744;28;20110;-83
2021/03/15 00:35:09;;;;;;;23.02;5.75;;;7.70;99.90;;;;;;5019476;28;20090;-82
2021/03/15 00:40:13;;;;;;;21.88;4.88;;;7.70;99.90;;;;;;5520467;22;20054;-83
2021/03/15 00:42:41;;;;;;;27.02;6.38;;;7.70;99.90;;;;;;5015844;28;20073;-82
2021/03/15 00:45:08;;;;;;;22.63;5.03;;;7.70;99.90;;;;;;5015850;28;20061;-82
2021/03/15 00:47:40;;;;;;;24.33;5.05;;;7.70;99.90;;;;;;5079402;22;20057;-83
2021/03/15 00:50:09;;;;;;;23.27;6.63;;;7.70;99.90;;;;;;5013521;28;20447;-82
2021/03/15 00:52:35;;;;;;;30.70;5.22;;;7.70;99.90;;;;;;5014534;28;20050;-83
2021/03/15 00:55:02;;;;;;;18.98;4.38;;;7.70;99.90;;;;;;5012572;28;20133;-83
2021/03/15 00:57:29;;;;;;;25.85;6.05;;;7.70;99.90;;;;;;5003809;28;20056;-83
2021/03/15 00:59:56;;;;;;;26.67;6.07;;;7.70;99.90;;;;;;5007618;28;20054;-82
2021/03/15 01:02:22;;;;;;;25.70;5.35;;;7.70;99.90;;;;;;5012340;28;20050;-83
2021/03/15 01:04:49;;;;;;;29.15;5.40;;;7.70;99.90;;;;;;5011330;28;20050;-83
2021/03/15 01:07:16;;;;;;;23.17;5.15;;;7.70;99.90;;;;;;5013547;28;20073;-83
2021/03/15 01:09:43;;;;;;;22.35;4.97;;;7.70;99.90;;;;;;4988609;28;20057;-83
2021/03/15 01:12:09;;;;;;;20.75;5.53;;;7.70;99.90;;;;;;4990083;28;20051;-83
2021/03/15 01:14:37;;;;;;;23.83;5.93;;;7.80;99.90;;;;;;4984682;28;20112;-83
2021/03/15 01:17:04;;;;;;;28.40;4.32;;;7.80;99.90;;;;;;4981340;28;20047;-84
2021/03/15 01:19:31;;;;;;;20.60;4.57;;;7.70;99.90;;;;;;4984934;28;20051;-83
2021/03/15 01:21:57;;;;;;;18.63;6.10;;;7.70;99.90;;;;;;4985668;28;20055;-83
2021/03/15 01:24:24;;;;;;;31.23;6.25;;;7.70;99.90;;;;;;4992019;28;20050;-83
2021/03/15 01:26:50;;;;;;;35.08;6.50;;;7.70;99.90;;;;;;4995562;28;20054;-83
2021/03/15 01:29:17;;;;;;;35.97;5.50;;;7.70;99.90;;;;;;4992478;28;20055;-83
2021/03/15 01:31:45;;;;;;;24.38;5.90;;;7.70;99.90;;;;;;4995686;28;20110;-82
2021/03/15 01:34:11;;;;;;;28.23;6.78;;;7.70;99.90;;;;;;4995801;28;20462;-83
2021/03/15 01:36:38;;;;;;;37.88;7.13;;;7.80;99.90;;;;;;4998249;28;20123;-82
2021/03/15 01:39:05;;;;;;;31.40;6.45;;;7.80;99.90;;;;;;4992689;28;20046;-82
2021/03/15 01:41:31;;;;;;;28.42;6.72;;;7.80;99.90;;;;;;4996343;28;20077;-83
2021/03/15 01:43:58;;;;;;;26.42;7.35;;;7.80;99.90;;;;;;4988848;28;20050;-83
2021/03/15 01:46:24;;;;;;;42.20;6.65;;;7.70;99.90;;;;;;4990498;28;20051;-83
2021/03/15 01:48:52;;;;;;;27.52;6.10;;;7.80;99.90;;;;;;4990911;28;20055;-82
2021/03/15 01:51:18;;;;;;;28.67;5.97;;;7.80;99.90;;;;;;4989413;28;20059;-83
2021/03/15 01:53:45;;;;;;;27.80;7.00;;;7.80;99.90;;;;;;4996771;28;20085;-83
2021/03/15 01:56:12;;;;;;;25.80;5.93;;;7.70;99.90;;;;;;4996946;28;20054;-83
2021/03/15 01:58:38;;;;;;;30.98;5.18;;;7.70;99.90;;;;;;4992312;28;20065;-83
2021/03/15 02:03:45;;;;;;;29.63;5.88;;;7.80;99.90;;;;;;5895171;23;20085;-82
2021/03/15 02:06:13;;;;;;;31.25;6.03;;;7.80;99.90;;;;;;5039119;28;20140;-82
2021/03/15 02:08:39;;;;;;;31.45;6.90;;;7.80;99.90;;;;;;5037805;28;20480;-82
2021/03/15 02:11:10;;;;;;;29.50;7.53;;;7.80;99.90;;;;;;5037618;28;20033;-81
2021/03/15 02:13:49;;;;;;;30.95;6.63;;;7.80;99.90;;;;;;5038850;28;20033;-82
2021/03/15 02:16:20;;;;;;;36.70;6.57;;;7.70;99.90;;;;;;5038801;28;20060;-82
2021/03/15 02:18:54;;;;;;;25.90;6.38;;;7.70;99.90;;;;;;5033008;28;20080;-82
2021/03/15 02:27:26;;;;;;;28.25;5.80;;;7.70;99.90;;;;;;5378424;22;20081;-83
2021/03/15 02:33:19;;;;;;;31.80;7.45;;;7.70;99.90;;;;;;5175345;22;20050;-82
2021/03/15 02:35:47;;;;;;;33.35;7.68;;;7.70;99.90;;;;;;5003923;28;20054;-83
2021/03/15 02:38:14;;;;;;;28.98;5.80;;;7.70;99.90;;;;;;4999774;28;20448;-82
2021/03/15 02:40:42;;;;;;;28.30;5.93;;;7.70;99.90;;;;;;4986014;28;20061;-82
2021/03/15 02:43:11;;;;;;;28.23;7.82;;;7.70;99.90;;;;;;4997436;28;20110;-82
2021/03/15 02:45:37;;;;;;;25.60;5.60;;;7.70;99.90;;;;;;4993758;28;20046;-83
2021/03/15 02:48:05;;;;;;;25.20;6.03;;;7.70;99.90;;;;;;4990846;28;20057;-82
2021/03/15 02:50:32;;;;;;;24.23;6.18;;;7.70;99.90;;;;;;4990789;28;20061;-82
2021/03/15 02:52:59;;;;;;;29.55;6.13;;;7.70;99.90;;;;;;4988237;28;20054;-83
2021/03/15 02:55:27;;;;;;;25.58;5.40;;;7.70;99.90;;;;;;4994102;28;20096;-82
2021/03/15 02:57:54;;;;;;;27.88;5.93;;;7.70;99.90;;;;;;4992633;28;20053;-83
2021/03/15 03:00:21;;;;;;;34.80;6.70;;;7.70;99.90;;;;;;4984383;28;20059;-82
2021/03/15 03:02:48;;;;;;;30.40;6.53;;;7.70;99.90;;;;;;4991076;28;20051;-82
2021/03/15 03:05:16;;;;;;;26.55;5.75;;;7.70;99.90;;;;;;4999399;28;20030;-82
2021/03/15 03:07:44;;;;;;;25.55;7.32;;;7.70;99.90;;;;;;4994211;28;20130;-82
2021/03/15 03:10:13;;;;;;;31.23;7.05;;;7.70;99.90;;;;;;4991238;28;20062;-81
2021/03/15 03:12:40;;;;;;;21.33;5.38;;;7.70;99.90;;;;;;4998044;28;20137;-82
2021/03/15 03:15:08;;;;;;;28.27;6.85;;;7.70;99.90;;;;;;4993512;28;20062;-82
2021/03/15 03:17:36;;;;;;;40.03;7.40;;;7.70;99.90;;;;;;4987840;28;20043;-82
2021/03/15 03:20:03;;;;;;;30.23;6.05;;;7.70;99.90;;;;;;4991311;28;20047;-81
2021/03/15 03:22:29;;;;;;;28.88;6.65;;;7.70;99.90;;;;;;4992592;28;20106;-82
2021/03/15 03:24:56;;;;;;;28.77;5.13;;;7.60;99.90;;;;;;4987341;28;20054;-82
2021/03/15 03:27:24;;;;;;;27.50;6.28;;;7.70;99.90;;;;;;4992210;28;20111;-82
2021/03/15 03:29:51;;;;;;;28.38;5.43;;;7.70;99.90;;;;;;4987768;28;20502;-82
2021/03/15 03:32:18;;;;;;;31.92;6.97;;;7.70;99.90;;;;;;4985748;28;20391;-82
2021/03/15 03:34:44;;;;;;;22.55;5.78;;;7.70;99.90;;;;;;4987953;28;20085;-82
2021/03/15 03:37:11;;;;;;;25.65;6.68;;;7.70;99.90;;;;;;4998685;28;20086;-82
2021/03/15 03:39:37;;;;;;;26.52;6.40;;;7.60;99.90;;;;;;4998595;28;20107;-82
2021/03/15 03:42:05;;;;;;;27.08;7.18;;;7.60;99.90;;;;;;4999322;28;20448;-82
2021/03/15 03:44:32;;;;;;;33.40;6.82;;;7.60;99.90;;;;;;4999421;28;20107;-82
2021/03/15 03:46:59;;;;;;;27.25;5.80;;;7.60;99.90;;;;;;4998515;28;20057;-81
2021/03/15 03:49:25;;;;;;;29.20;6.50;;;7.60;99.90;;;;;;4994269;28;20050;-82
2021/03/15 03:51:55;;;;;;;30.50;5.88;;;7.60;99.90;;;;;;4993248;28;20055;-82
2021/03/15 04:04:53;;;;;;;29.10;5.38;;;7.60;99.90;;;;;;5263529;22;20077;-83
2021/03/15 04:07:22;;;;;;;38.58;7.00;;;7.60;99.90;;;;;;5017165;28;20125;-81
2021/03/15 04:09:48;;;;;;;29.58;5.63;;;7.60;99.90;;;;;;5019793;28;20086;-81
2021/03/15 04:38:10;;;;;;;24.48;5.38;;;7.50;99.90;;;;;;5542787;22;20132;-83
2021/03/15 04:40:37;;;;;;;40.00;6.18;;;7.50;99.90;;;;;;5018596;28;20135;-82
2021/03/15 04:43:05;;;;;;;26.35;5.88;;;7.50;99.90;;;;;;5016220;28;20176;-83
2021/03/15 04:45:32;;;;;;;29.90;5.70;;;7.50;99.90;;;;;;5011582;28;20064;-83
2021/03/15 04:47:59;;;;;;;33.80;6.22;;;7.50;99.90;;;;;;5011689;28;20061;-83
2021/03/15 04:50:26;;;;;;;26.38;6.38;;;7.50;99.90;;;;;;5008748;28;20122;-83
2021/03/15 04:52:52;;;;;;;33.10;6.15;;;7.50;99.90;;;;;;5007453;28;20473;-82
2021/03/15 04:55:20;;;;;;;26.50;5.78;;;7.50;99.90;;;;;;5013803;28;20054;-82
2021/03/15 04:57:46;;;;;;;25.55;6.25;;;7.50;99.90;;;;;;5015229;28;20060;-83
2021/03/15 05:00:14;;;;;;;40.58;8.82;;;7.50;99.90;;;;;;5008076;28;20050;-83
2021/03/15 05:02:42;;;;;;;25.23;5.78;;;7.50;99.90;;;;;;5006873;28;20054;-83
2021/03/15 05:05:10;;;;;;;26.73;6.53;;;7.50;99.90;;;;;;5004357;28;20054;-83
2021/03/15 05:07:37;;;;;;;33.80;6.55;;;7.60;99.90;;;;;;5009308;28;20046;-83
2021/03/15 05:10:04;;;;;;;29.40;6.25;;;7.60;99.90;;;;;;5008800;28;20486;-83
2021/03/15 05:12:31;;;;;;;27.17;5.05;;;7.60;99.90;;;;;;5002114;28;20047;-83
2021/03/15 05:14:58;;;;;;;42.22;5.55;;;7.60;99.90;;;;;;5002310;28;20134;-83
2021/03/15 05:17:24;;;;;;;39.22;6.25;;;7.60;99.90;;;;;;5004257;28;20042;-83
2021/03/15 05:19:51;;;;;;;29.25;6.55;;;7.60;99.90;;;;;;5000976;28;20072;-84
2021/03/15 05:22:18;;;;;;;34.85;6.85;;;7.60;99.90;;;;;;5011693;28;20110;-84
2021/03/15 05:24:44;;;;;;;40.35;6.07;;;7.60;99.90;;;;;;5009833;28;20046;-83
2021/03/15 05:27:11;;;;;;;29.92;5.50;;;7.60;99.90;;;;;;5001067;28;20046;-84
2021/03/15 05:29:40;;;;;;;27.02;6.00;;;7.60;99.90;;;;;;5002269;28;20448;-83
2021/03/15 05:32:07;;;;;;;29.00;5.60;;;7.60;99.90;;;;;;5007349;28;20056;-84
2021/03/15 05:34:33;;;;;;;30.95;6.28;;;7.60;99.90;;;;;;5001453;28;20060;-84
2021/03/15 05:37:00;;;;;;;24.35;6.88;;;7.60;99.90;;;;;;5001197;28;20046;-84
2021/03/15 05:39:26;;;;;;;30.73;5.95;;;7.60;99.90;;;;;;4987385;28;20051;-84
2021/03/15 05:53:13;;;;;;;38.30;6.78;;;7.50;99.90;;;;;;5326557;22;20371;-83
2021/03/15 06:01:04;;;;;;;23.02;7.13;;;7.40;99.90;;;;;;5475897;22;20054;-82
2021/03/15 06:03:49;;;;;;;38.58;7.47;;;7.40;99.90;;;;;;5016815;28;20098;-82
2021/03/15 06:06:17;;;;;;;21.13;5.00;;;7.40;99.90;;;;;;4997650;28;20114;-83
2021/03/15 06:08:47;;;;;;;26.63;5.78;;;7.40;99.90;;;;;;5015887;28;20047;-83
2021/03/15 06:11:16;;;;;;;25.65;6.15;;;7.40;99.90;;;;;;5009011;28;20046;-83
2021/03/15 06:13:43;;;;;;;40.58;8.15;;;7.40;99.90;;;;;;5009126;28;20204;-83
2021/03/15 06:16:11;;;;;;;40.13;7.30;;;7.40;99.90;;;;;;5008044;28;20054;-83
2021/03/15 06:18:38;;;;;;;38.17;7.13;;;7.40;99.90;;;;;;5010891;28;20134;-82
2021/03/15 06:21:05;;;;;;;31.48;5.45;;;7.50;99.90;;;;;;5012518;28;20142;-83
2021/03/15 06:23:31;;;;;;;27.20;5.28;;;7.50;99.90;;;;;;5004765;28;20056;-82
2021/03/15 06:25:59;;;;;;;27.20;5.40;;;7.50;99.90;;;;;;5017753;28;20095;-82
2021/03/15 06:28:26;;;;;;;24.15;5.25;;;7.50;99.90;;;;;;5018384;28;20109;-82
2021/03/15 08:30:57;;;;;;;32.70;6.13;;;8.10;99.90;;;;;;5033569;22;20059;-91
2021/03/15 08:33:24;;;;;;;25.08;5.07;;;8.10;99.90;;;;;;4996649;28;20137;-89
2021/03/15 08:35:54;;;;;;;26.27;5.13;;;8.10;99.90;;;;;;4996879;28;20427;-90
2021/03/15 08:38:28;;;;;;;33.85;9.32;;;8.10;99.90;;;;;;4993106;28;20503;-91
2021/03/15 08:44:06;;;;;;;24.08;5.97;;;8.20;99.90;;;;;;4964816;28;20058;-91
2021/03/15 09:03:14;;;;;;;36.85;7.07;;;8.50;99.90;;;;;;4997419;28;20078;-89
2021/03/15 09:05:44;;;;;;;33.65;5.70;;;8.70;99.90;;;;;;4995411;28;20054;-91
2021/03/15 09:08:10;;;;;;;24.40;5.30;;;8.60;99.90;;;;;;4993023;28;20050;-91
2021/03/15 09:10:38;;;;;;;31.83;6.35;;;8.60;99.90;;;;;;4976105;28;20063;-91
2021/03/15 09:16:29;;;;;;;24.23;5.03;;;8.60;99.90;;;;;;4976054;28;20058;-91
2021/03/15 09:18:57;;;;;;;22.33;5.53;;;8.60;99.90;;;;;;4975687;28;20464;-91
2021/03/15 09:21:57;;;;;;;26.15;5.55;;;8.70;99.90;;;;;;4976106;28;20089;-91
2021/03/15 09:27:46;;;;;;;29.35;5.20;;;8.80;99.90;;;;;;4976582;28;20068;-91
2021/03/15 09:30:19;;;;;;;28.33;5.95;;;8.80;99.90;;;;;;4975807;28;20061;-88
2021/03/15 09:32:47;;;;;;;35.70;5.38;;;8.80;99.90;;;;;;4975337;28;20188;-87
2021/03/15 09:35:20;;;;;;;27.48;6.95;;;8.90;99.90;;;;;;4975097;28;20051;-87
2021/03/15 09:37:48;;;;;;;42.15;5.80;;;8.90;99.90;;;;;;4975093;28;20459;-87
2021/03/15 09:40:16;;;;;;;23.40;5.63;;;8.80;99.90;;;;;;4975147;28;20061;-88
2021/03/15 09:42:43;;;;;;;26.50;4.95;;;8.90;99.90;;;;;;4975079;28;20076;-87
2021/03/15 09:45:13;;;;;;;20.65;5.47;;;8.90;99.90;;;;;;4975331;28;20055;-86
2021/03/15 09:47:39;;;;;;;24.25;5.10;;;9.10;99.90;;;;;;4975007;28;20058;-85
2021/03/15 09:50:20;;;;;;;22.05;4.15;;;9.10;99.90;;;;;;4975304;28;20431;-85
2021/03/15 09:52:47;;;;;;;37.75;6.05;;;9.10;99.90;;;;;;4975026;28;20090;-85
2021/03/15 09:55:13;;;;;;;26.33;6.43;;;9.10;99.90;;;;;;4974676;28;20055;-85
2021/03/15 09:57:40;;;;;;;28.85;4.93;;;9.10;99.90;;;;;;4975126;28;20055;-85
2021/03/15 10:00:08;;;;;;;25.13;4.97;;;9.00;99.90;;;;;;4976984;28;20058;-84
2021/03/15 10:02:35;;;;;;;31.75;4.43;;;9.00;99.90;;;;;;4978944;28;20054;-85
2021/03/15 10:05:02;;;;;;;41.42;6.97;;;9.00;99.90;;;;;;4978760;28;20054;-85
2021/03/15 10:07:29;;;;;;;31.48;5.15;;;9.00;99.90;;;;;;4978890;28;20126;-86
2021/03/15 10:09:56;;;;;;;32.15;5.78;;;9.00;99.90;;;;;;4978648;28;20050;-84
2021/03/15 10:12:23;;;;;;;17.90;4.43;;;9.00;99.90;;;;;;4978374;28;20065;-85
2021/03/15 10:14:59;;;;;;;32.28;6.03;;;9.10;99.90;;;;;;4978728;28;20161;-85
2021/03/15 10:17:25;;;;;;;37.15;6.53;;;9.20;99.90;;;;;;4978334;28;20047;-85
2021/03/15 10:19:52;;;;;;;20.27;4.68;;;9.30;99.90;;;;;;4978112;28;20495;-85
2021/03/15 10:22:19;;;;;;;30.13;4.00;;;9.30;99.90;;;;;;4978052;28;20066;-85
2021/03/15 10:24:48;;;;;;;27.48;5.30;;;9.40;99.90;;;;;;4978474;28;20055;-85
2021/03/15 10:27:20;;;;;;;27.13;4.72;;;9.50;99.90;;;;;;4978469;28;20073;-85
2021/03/15 10:29:51;;;;;;;50.63;7.32;;;9.60;99.90;;;;;;4978457;28;20061;-85
2021/03/15 10:32:20;;;;;;;17.75;5.80;;;9.70;99.90;;;;;;4978164;28;20391;-85
2021/03/15 10:35:00;;;;;;;18.67;3.67;;;9.70;99.90;;;;;;4978324;28;20051;-84
2021/03/15 10:37:27;;;;;;;26.48;6.13;;;9.80;99.90;;;;;;4978029;28;20073;-86
2021/03/15 10:39:55;;;;;;;20.58;4.53;;;9.90;99.90;;;;;;4993681;28;20389;-85
2021/03/15 10:42:22;;;;;;;22.27;3.95;;;9.90;99.90;;;;;;4997221;28;20046;-86
2021/03/15 10:44:49;;;;;;;39.20;5.03;;;9.90;99.90;;;;;;4997339;28;20054;-85
2021/03/15 10:47:24;;;;;;;26.15;5.47;;;9.80;99.90;;;;;;4997358;28;20375;-84
2021/03/15 10:49:51;;;;;;;25.65;4.63;;;9.80;99.90;;;;;;4997265;28;20050;-85
2021/03/15 10:52:26;;;;;;;25.50;5.13;;;9.80;99.90;;;;;;4997375;28;20057;-81
2021/03/15 10:54:54;;;;;;;19.38;4.93;;;9.80;99.90;;;;;;4997218;28;20072;-84
2021/03/15 10:57:21;;;;;;;21.67;4.10;;;9.90;99.90;;;;;;4997430;28;20046;-84
2021/03/15 10:59:48;;;;;;;22.63;4.38;;;10.00;99.90;;;;;;4996849;28;20130;-84
2021/03/15 11:02:25;;;;;;;24.45;6.82;;;10.00;99.90;;;;;;4997325;28;20050;-85
2021/03/15 11:04:56;;;;;;;26.58;4.78;;;10.00;99.90;;;;;;4997018;28;20513;-85
2021/03/15 11:07:27;;;;;;;16.48;3.80;;;10.00;99.90;;;;;;4997083;28;20050;-86
2021/03/15 11:09:56;;;;;;;27.48;4.03;;;10.00;99.90;;;;;;4996638;28;20046;-85
2021/03/15 11:12:36;;;;;;;24.75;4.00;;;9.90;99.90;;;;;;4996769;28;20116;-85
2021/03/15 11:15:17;;;;;;;24.08;5.22;;;9.90;99.90;;;;;;4997085;28;20050;-84
2021/03/15 11:17:56;;;;;;;22.70;4.25;;;9.80;99.90;;;;;;4996746;28;20056;-86
2021/03/15 11:20:43;;;;;;;18.65;3.95;;;9.80;99.90;;;;;;4996757;28;20116;-86
2021/03/15 11:23:10;;;;;;;18.13;4.50;;;9.80;99.90;;;;;;4996842;28;20047;-85
2021/03/15 11:25:38;;;;;;;13.15;2.63;;;9.80;99.90;;;;;;4997545;28;20519;-84
2021/03/15 11:28:09;;;;;;;18.80;3.85;;;9.80;99.90;;;;;;5016220;28;20111;-83
2021/03/15 11:30:37;;;;;;;19.50;4.10;;;9.80;99.90;;;;;;5016196;28;20045;-84
2021/03/15 11:33:06;;;;;;;21.42;3.25;;;9.80;99.90;;;;;;5016436;28;20050;-85
2021/03/15 11:35:32;;;;;;;17.85;3.00;;;9.80;99.90;;;;;;5016083;28;20705;-84
2021/03/15 11:37:59;;;;;;;18.80;3.90;;;9.80;99.90;;;;;;5015887;28;20053;-85
2021/03/15 11:40:27;;;;;;;16.05;6.13;;;9.80;99.90;;;;;;5015794;28;20429;-87
2021/03/15 11:42:55;;;;;;;24.35;4.38;;;9.70;99.90;;;;;;5015160;28;20046;-83
2021/03/15 11:45:22;;;;;;;14.45;4.95;;;9.70;99.90;;;;;;4995753;28;20050;-85
2021/03/15 11:47:48;;;;;;;15.60;3.33;;;9.70;99.90;;;;;;4996040;28;20056;-86
2021/03/15 11:50:15;;;;;;;13.48;3.13;;;9.60;99.90;;;;;;4996178;28;20085;-84
2021/03/15 11:52:42;;;;;;;23.33;3.47;;;9.70;99.90;;;;;;4996079;28;20399;-85
2021/03/15 11:55:09;;;;;;;26.67;3.70;;;9.70;99.90;;;;;;4996214;28;20062;-85
2021/03/15 11:57:35;;;;;;;18.92;2.90;;;9.80;99.90;;;;;;4995985;28;20447;-87
2021/03/15 12:00:04;;;;;;;10.70;2.33;;;9.80;99.90;;;;;;4995994;28;20398;-86
2021/03/15 12:02:30;;;;;;;20.65;2.75;;;9.90;99.90;;;;;;4996215;28;20050;-84
2021/03/15 12:04:57;;;;;;;20.00;3.33;;;9.80;99.90;;;;;;4996146;28;20069;-86
2021/03/15 12:07:24;;;;;;;13.43;2.58;;;9.80;99.90;;;;;;4995792;28;20403;-86
2021/03/15 12:09:50;;;;;;;12.48;2.30;;;9.80;99.90;;;;;;4995807;28;20072;-85
2021/03/15 12:12:17;;;;;;;13.77;2.70;;;9.90;99.90;;;;;;4995473;28;20074;-85
2021/03/15 12:14:43;;;;;;;18.50;4.30;;;9.90;99.90;;;;;;4995134;28;20051;-86
2021/03/15 12:17:11;;;;;;;16.10;3.13;;;9.90;99.90;;;;;;4995217;28;20058;-85
2021/03/15 12:19:38;;;;;;;12.63;2.78;;;10.00;99.90;;;;;;4995807;28;20054;-87
2021/03/15 12:22:04;;;;;;;10.38;2.42;;;9.90;99.90;;;;;;4994769;28;20062;-84
2021/03/15 12:24:31;;;;;;;18.33;3.83;;;9.90;99.90;;;;;;4995838;28;20061;-85
2021/03/15 12:26:57;;;;;;;16.52;2.97;;;9.80;99.90;;;;;;4995557;28;20050;-86
2021/03/15 12:29:24;;;;;;;11.88;5.30;;;9.80;99.90;;;;;;4995841;28;20054;-83
2021/03/15 12:31:51;;;;;;;7.55;2.10;;;9.80;99.90;;;;;;4995277;28;20042;-84
2021/03/15 12:34:18;;;;;;;13.40;2.53;;;9.70;99.90;;;;;;4995323;28;20104;-85
2021/03/15 12:36:45;;;;;;;14.15;2.58;;;9.80;99.90;;;;;;4995091;28;20463;-85
2021/03/15 12:39:11;;;;;;;18.05;3.28;;;9.70;99.90;;;;;;5005566;28;20046;-85
2021/03/15 12:41:39;;;;;;;15.63;3.10;;;9.70;99.90;;;;;;5014761;28;20053;-85
2021/03/15 12:44:06;;;;;;;14.13;3.40;;;9.70;99.90;;;;;;5014707;28;20463;-86
2021/03/15 12:46:33;;;;;;;10.05;2.53;;;9.70;99.90;;;;;;5014887;28;20058;-84
2021/03/15 12:48:59;;;;;;;14.65;2.28;;;9.80;99.90;;;;;;5014695;28;20050;-85
2021/03/15 12:51:27;;;;;;;13.70;3.45;;;9.80;99.90;;;;;;5014870;28;20087;-86
2021/03/15 12:53:53;;;;;;;12.70;2.13;;;9.80;99.90;;;;;;5014397;28;20103;-86
2021/03/15 12:56:20;;;;;;;14.25;2.45;;;9.80;99.90;;;;;;5013884;28;20058;-84
2021/03/15 12:58:47;;;;;;;20.05;2.83;;;9.80;99.90;;;;;;5014596;28;20056;-84
2021/03/15 13:01:13;;;;;;;22.13;3.55;;;9.80;99.90;;;;;;5014474;28;20053;-85
2021/03/15 13:03:40;;;;;;;15.65;2.95;;;9.80;99.90;;;;;;5014531;28;20080;-85
2021/03/15 13:06:06;;;;;;;13.88;2.50;;;9.80;99.90;;;;;;5014459;28;20049;-85
2021/03/15 13:08:34;;;;;;;12.27;3.15;;;9.90;99.90;;;;;;5014174;28;20474;-85
2021/03/15 13:11:00;;;;;;;12.23;3.17;;;10.00;99.90;;;;;;5014537;28;20045;-84
2021/03/15 13:13:27;;;;;;;15.75;2.92;;;10.10;99.90;;;;;;5013938;28;20053;-85
2021/03/15 13:15:54;;;;;;;17.95;2.83;;;10.20;99.90;;;;;;5014807;28;20060;-84
2021/03/15 13:18:20;;;;;;;11.80;4.05;;;10.20;99.90;;;;;;5014614;28;20348;-85
2021/03/15 13:20:47;;;;;;;12.95;3.63;;;10.30;99.90;;;;;;5014006;28;20045;-86
2021/03/15 13:23:13;;;;;;;15.40;2.97;;;10.20;99.90;;;;;;5014653;28;20054;-86
2021/03/15 13:25:41;;;;;;;14.95;2.85;;;10.20;99.90;;;;;;5014697;28;20057;-86
2021/03/15 13:28:07;;;;;;;15.52;2.97;;;10.20;99.90;;;;;;5014524;28;20072;-86
2021/03/15 13:30:34;;;;;;;11.93;2.88;;;10.20;99.90;;;;;;5014286;28;20060;-85
2021/03/15 13:33:03;;;;;;;17.63;3.20;;;10.10;99.90;;;;;;5014904;28;20390;-86
2021/03/15 13:35:29;;;;;;;14.98;2.35;;;10.00;99.90;;;;;;5018600;28;20046;-86
2021/03/15 13:37:56;;;;;;;11.20;2.20;;;10.00;99.90;;;;;;5017980;28;20053;-82
2021/03/15 13:40:23;;;;;;;13.02;2.58;;;10.00;99.90;;;;;;5018658;28;20065;-96
2021/03/15 13:42:50;;;;;;;12.35;2.58;;;10.10;99.90;;;;;;5018377;28;20089;-79
2021/03/15 13:45:17;;;;;;;9.80;2.00;;;10.10;99.90;;;;;;5018286;28;20501;-90
2021/03/15 13:47:44;;;;;;;17.95;3.58;;;10.20;99.90;;;;;;5018423;28;20056;-86
2021/03/15 13:50:12;;;;;;;14.68;2.25;;;10.20;99.90;;;;;;5022492;28;20050;-88
2021/03/15 13:52:39;;;;;;;10.23;4.10;;;10.30;99.90;;;;;;5020514;28;20054;-85
2021/03/15 13:55:06;;;;;;;15.63;2.70;;;10.20;99.90;;;;;;5017905;28;20060;-91
2021/03/15 13:57:33;;;;;;;10.63;2.03;;;10.20;99.90;;;;;;5018427;28;20470;-80
2021/03/15 14:00:00;;;;;;;12.18;3.42;;;10.30;99.90;;;;;;5018299;28;20054;-91
2021/03/15 14:02:27;;;;;;;10.27;2.80;;;10.20;99.90;;;;;;5018212;28;20046;-93
2021/03/15 14:04:54;;;;;;;13.60;4.15;;;10.20;99.90;;;;;;5018387;28;20057;-93
2021/03/15 14:07:21;;;;;;;11.18;2.25;;;10.20;99.90;;;;;;5017873;28;20080;-83
2021/03/15 14:09:48;;;;;;;13.27;2.47;;;10.20;99.90;;;;;;5019369;28;20050;-82
2021/03/15 14:12:15;;;;;;;12.27;3.05;;;10.20;99.90;;;;;;5020105;28;20089;-85
2021/03/15 14:14:42;;;;;;;14.48;2.58;;;10.20;99.90;;;;;;5016828;28;20111;-79
2021/03/15 14:17:09;;;;;;;11.23;2.40;;;10.30;99.90;;;;;;5017535;28;20146;-83
2021/03/15 14:19:36;;;;;;;12.02;2.50;;;10.30;99.90;;;;;;5016854;28;20053;-82
2021/03/15 14:22:02;;;;;;;13.30;3.25;;;10.30;99.90;;;;;;5017728;28;20053;-82
2021/03/15 14:24:29;;;;;;;14.43;2.22;;;10.40;99.90;;;;;;5017415;28;20451;-80
2021/03/15 14:26:56;;;;;;;12.00;2.50;;;10.40;99.90;;;;;;5017240;28;20050;-79
2021/03/15 14:29:22;;;;;;;13.90;2.53;;;10.40;99.90;;;;;;5017485;28;20053;-81
2021/03/15 14:31:49;;;;;;;11.52;1.92;;;10.30;99.90;;;;;;5017251;28;20467;-81
2021/03/15 14:34:16;;;;;;;12.32;4.13;;;10.30;99.90;;;;;;5017361;28;20204;-81
2021/03/15 14:36:43;;;;;;;11.90;2.92;;;10.30;99.90;;;;;;5016990;28;20053;-80
2021/03/15 14:39:10;;;;;;;13.02;2.42;;;10.20;99.90;;;;;;5016444;28;20056;-79
2021/03/15 14:41:37;;;;;;;11.13;2.17;;;10.10;99.90;;;;;;5016706;28;20360;-79
2021/03/15 14:44:03;;;;;;;15.98;4.47;;;10.10;99.90;;;;;;5016658;28;20085;-81
2021/03/15 14:46:30;;;;;;;9.55;3.28;;;10.10;99.90;;;;;;5016153;28;20057;-82
2021/03/15 14:48:57;;;;;;;11.48;2.03;;;10.20;99.90;;;;;;5017061;28;20056;-83
2021/03/15 14:51:24;;;;;;;15.18;2.63;;;10.20;99.90;;;;;;5016900;28;20512;-81
2021/03/15 14:53:51;;;;;;;5.93;1.70;;;10.20;99.90;;;;;;5016806;28;20054;-80
2021/03/15 14:56:18;;;;;;;6.70;2.00;;;10.30;99.90;;;;;;5017419;28;20054;-92
2021/03/15 14:58:44;;;;;;;14.07;2.80;;;10.20;99.90;;;;;;5021658;28;20502;-96
2021/03/15 15:01:11;;;;;;;13.02;3.85;;;10.20;99.90;;;;;;5018697;28;20060;-90
2021/03/15 15:03:46;;;;;;;14.57;3.35;;;10.30;99.90;;;;;;5019744;28;20042;-95
2021/03/15 15:06:12;;;;;;;;;;;9.70;99.90;;;;;;5018656;28;20053;-92
2021/03/15 15:08:43;;;;;;;12.27;3.17;;;10.30;99.90;;;;;;5018139;28;19922;-95
2021/03/15 15:11:09;;;;;;;13.07;2.70;;;10.30;99.90;;;;;;5017771;28;20045;-80
2021/03/15 15:13:37;;;;;;;7.70;2.83;;;10.30;99.90;;;;;;5016279;28;20480;-80
2021/03/15 15:16:04;;;;;;;16.15;2.85;;;10.40;99.90;;;;;;5015820;28;20419;-80
2021/03/15 15:18:32;;;;;;;13.25;2.60;;;10.40;99.90;;;;;;5016374;28;20049;-83
2021/03/15 15:20:58;;;;;;;13.00;2.92;;;10.40;99.90;;;;;;5016723;28;20057;-79
2021/03/15 15:23:25;;;;;;;60.42;9.45;;;10.50;99.90;;;;;;5015918;28;20054;-82
2021/03/15 15:25:52;;;;;;;11.68;2.60;;;10.50;99.90;;;;;;5016447;28;20046;-81
2021/03/15 15:28:19;;;;;;;10.55;2.85;;;10.50;99.90;;;;;;5016068;28;20064;-82
2021/03/15 15:30:45;;;;;;;8.23;2.17;;;10.40;99.90;;;;;;5016551;28;20058;-80
2021/03/15 15:33:14;;;;;;;10.35;2.05;;;10.40;99.90;;;;;;5015898;28;20467;-80
2021/03/15 15:35:41;;;;;;;14.23;2.90;;;10.20;99.90;;;;;;5016032;28;20050;-80
2021/03/15 15:38:09;;;;;;;15.05;2.97;;;10.20;99.90;;;;;;5015760;28;20115;-84
2021/03/15 15:40:37;;;;;;;15.88;2.88;;;10.20;99.90;;;;;;5016311;28;20096;-85
2021/03/15 15:43:06;;;;;;;7.30;2.70;;;10.20;99.90;;;;;;5014841;28;20356;-78
2021/03/15 15:45:34;;;;;;;12.52;3.25;;;10.20;99.90;;;;;;4996676;28;20050;-86
2021/03/15 15:48:02;;;;;;;11.60;2.90;;;10.20;99.90;;;;;;4996237;28;20054;-87
2021/03/15 15:50:31;;;;;;;8.10;2.40;;;10.30;99.90;;;;;;4996213;28;20046;-87
2021/03/15 15:52:59;;;;;;;12.27;1.67;;;10.30;99.90;;;;;;4996500;28;20046;-88
2021/03/15 15:55:27;;;;;;;12.63;2.80;;;10.30;99.90;;;;;;4996143;28;20064;-88
2021/03/15 15:57:55;;;;;;;7.88;2.88;;;10.30;99.90;;;;;;4994963;28;20056;-86
2021/03/15 16:00:24;;;;;;;10.27;1.95;;;10.30;99.90;;;;;;4996296;28;20050;-88
2021/03/15 16:02:52;;;;;;;15.68;2.72;;;10.30;99.90;;;;;;4996105;28;20530;-86
2021/03/15 16:05:21;;;;;;;13.30;2.63;;;10.30;99.90;;;;;;4996447;28;20053;-85
2021/03/15 16:07:47;;;;;;;15.15;4.25;;;10.30;99.90;;;;;;4995942;28;20050;-88
2021/03/15 16:10:18;;;;;;;13.93;2.67;;;10.30;99.90;;;;;;5014843;28;20107;-88
2021/03/15 16:12:46;;;;;;;10.60;2.42;;;10.20;99.90;;;;;;5015600;28;20057;-87
2021/03/15 16:15:14;;;;;;;10.50;3.22;;;10.20;99.90;;;;;;5015515;28;20482;-88
2021/03/15 16:17:43;;;;;;;16.02;2.08;;;10.20;99.90;;;;;;5015142;28;20050;-87
2021/03/15 16:20:12;;;;;;;11.63;2.25;;;10.10;99.90;;;;;;5002371;28;20376;-87
2021/03/15 16:22:41;;;;;;;15.00;2.40;;;10.10;99.90;;;;;;4995986;28;20046;-89
2021/03/15 16:25:09;;;;;;;9.88;2.33;;;10.10;99.90;;;;;;4995889;28;20073;-88
2021/03/15 16:27:37;;;;;;;12.93;4.03;;;10.10;99.90;;;;;;4995883;28;20112;-89
2021/03/15 16:30:08;;;;;;;10.93;2.13;;;10.00;99.90;;;;;;4995770;28;20047;-89
2021/03/15 16:32:37;;;;;;;11.73;2.20;;;10.00;99.90;;;;;;4995587;28;20459;-87
2021/03/15 16:35:06;;;;;;;13.95;2.38;;;10.00;99.90;;;;;;4995710;28;20058;-87
2021/03/15 16:37:34;;;;;;;10.90;2.83;;;10.00;99.90;;;;;;4995602;28;20047;-88
2021/03/15 16:40:04;;;;;;;12.98;2.00;;;9.90;99.90;;;;;;5012079;28;20054;-88